Domov               UVHVVR             MKGP            O straneh              
ZDRAVSTVENO VARSTVO RASTLIN
  MREŽA AGROMET. POSTAJ
 ► PROGNOSTIČNA OBVESTILA
AGROMETEOROLOŠKI PODATKI -
ARSO
OBVLADOVANJE TVEGANJ ZARADI
NEUGODNIH VREMENSKIH RAZMER
  ► NARAVNE NESREČE
  ► SUŠA/MOČA
  ► NAMAKANJE
  ► ŽLED (gozdarstvo)
KARTOGRAFSKI PRIKAZI
SPLETNE POVEZAVE
PROJEKTI IN PUBLIKACIJE

AGROMETEOROLOŠKA MREŽA: VREMENSKE POSTAJE IN FENOLOŠKA OPAZOVANJA

Pregled podatkov za lokacijo Gabernik-Rogaška, meteorološka postaja 37800

Pregled senzorjev na lokaciji

ID Ime Zadnja
vrednost
Datum in čas
zadnje
spremembe
(Lokalni čas)
Tip
senzorja
1828 Omočenost lista (U) 0 U 10.4.2020 00:30 A730WET
4946 Padavine (mm) 0 mm 10.4.2020 00:30 Generic 0.2 mm
1827 Relativna vlaga 2 m (% RH) 30.38 % RH 10.4.2020 00:30 50YA
1826 Temperatura 2 m (°C) 14.92 °C 10.4.2020 00:30 50YA

Pregled podatkov zadnjih 24 ur

Zap.
št.
Datum in čas
(Centralno
evropski čas)
Gabernik-Rogaška
Omočenost
lista
Padavine Relativna
vlaga
2
m
Temperatura
2
m
1 10.4.2020 00:30
2 10.4.2020 00:00
3 9.4.2020 23:30 0 0 30.4 14.9
4 9.4.2020 23:00 0 0 29.3 15.4
5 9.4.2020 22:30 0 0 27.1 16.5
6 9.4.2020 22:00 0 0 26.4 16.9
7 9.4.2020 21:30 0 0 26.1 17
8 9.4.2020 21:00 0 0 26.5 17
9 9.4.2020 20:30 0 0 24.3 17.6
10 9.4.2020 20:00 0 0 22.9 18.2
11 9.4.2020 19:30 0 0 22.8 18.4
12 9.4.2020 19:00 0 0 22.9 18.6
13 9.4.2020 18:30 0 0 23.5 19.3
14 9.4.2020 18:00 0 0 22.6 21.2
15 9.4.2020 17:30 0 0 21.6 22.1
16 9.4.2020 17:00 0 0 21.1 22.5
17 9.4.2020 16:30 0 0 22.2 22.3
18 9.4.2020 16:00 0 0 21.1 22.5
19 9.4.2020 15:30 0 0 22.1 22.7
20 9.4.2020 15:00 0 0 21.7 22.4
21 9.4.2020 14:30 0 0 22.1 22.2
22 9.4.2020 14:00 0 0 23.2 21.6
23 9.4.2020 13:30 0 0 22.6 21.2
24 9.4.2020 13:00 0 0 23.4 20.7
25 9.4.2020 12:30 0 0 23.3 20
26 9.4.2020 12:00 0 0 24.6 19
27 9.4.2020 11:30 0 0 27.3 18.6
28 9.4.2020 11:00 0 0 31.1 17.1
29 9.4.2020 10:30 0 0 35.2 15.8
30 9.4.2020 10:00 0 0 38.8 14
31 9.4.2020 09:30 0 0 41.1 12.4
32 9.4.2020 09:00 0 0 42.8 10.9
33 9.4.2020 08:30 0 0 47.6 9
34 9.4.2020 08:00 0 0 51.9 7.4
35 9.4.2020 07:30 0 0 55.6 5.8
36 9.4.2020 07:00 0 0 54.3 5.3
37 9.4.2020 06:30 0 0 53.8 5.2
38 9.4.2020 06:00 0 0 54.2 5.1
39 9.4.2020 05:30 0 0 55.7 4.7
40 9.4.2020 05:00 0 0 51.9 5.4
41 9.4.2020 04:30 0 0 50.3 5.8
42 9.4.2020 04:00 0 0 50.6 5.7
43 9.4.2020 03:30 0 0 46.7 6.5
44 9.4.2020 03:00 0 0 42.4 7.5
45 9.4.2020 02:30 0 0 41.8 7.8
46 9.4.2020 02:00 0 0 40.6 8.1
47 9.4.2020 01:30 0 0 36.6 9.2
48 9.4.2020 01:00 0 0 34.7 9.6
© 2011 Ministrstvo za kmetijstvo, gozdarstvo in prehrano. Vse pravice pridržane.